sensor_id;sensor_type;location;lat;lon;timestamp;temperature;humidity
29243;DHT22;21110;48.036;15.780;2023-03-01T00:01:06;23.70;37.30
29243;DHT22;21110;48.036;15.780;2023-03-01T00:03:32;23.80;37.00
29243;DHT22;21110;48.036;15.780;2023-03-01T00:05:58;23.80;37.30
29243;DHT22;21110;48.036;15.780;2023-03-01T00:08:25;23.70;37.10
29243;DHT22;21110;48.036;15.780;2023-03-01T00:11:24;23.70;37.30
29243;DHT22;21110;48.036;15.780;2023-03-01T00:13:53;23.70;37.10
29243;DHT22;21110;48.036;15.780;2023-03-01T00:16:25;23.70;37.20
29243;DHT22;21110;48.036;15.780;2023-03-01T00:18:51;23.70;37.40
29243;DHT22;21110;48.036;15.780;2023-03-01T00:21:17;23.60;37.60
29243;DHT22;21110;48.036;15.780;2023-03-01T00:23:44;23.60;37.50
29243;DHT22;21110;48.036;15.780;2023-03-01T00:26:13;23.60;37.60
29243;DHT22;21110;48.036;15.780;2023-03-01T00:28:39;23.50;37.50
29243;DHT22;21110;48.036;15.780;2023-03-01T00:31:06;23.50;37.40
29243;DHT22;21110;48.036;15.780;2023-03-01T00:33:32;23.60;37.50
29243;DHT22;21110;48.036;15.780;2023-03-01T00:35:58;23.50;37.40
29243;DHT22;21110;48.036;15.780;2023-03-01T00:38:24;23.50;37.30
29243;DHT22;21110;48.036;15.780;2023-03-01T00:40:50;23.50;37.50
29243;DHT22;21110;48.036;15.780;2023-03-01T00:43:15;23.40;37.50
29243;DHT22;21110;48.036;15.780;2023-03-01T00:45:41;23.40;37.40
29243;DHT22;21110;48.036;15.780;2023-03-01T00:48:06;23.40;37.50
29243;DHT22;21110;48.036;15.780;2023-03-01T00:50:32;23.40;37.60
29243;DHT22;21110;48.036;15.780;2023-03-01T00:52:58;23.30;37.60
29243;DHT22;21110;48.036;15.780;2023-03-01T00:55:24;23.40;37.70
29243;DHT22;21110;48.036;15.780;2023-03-01T00:57:50;23.40;37.60
29243;DHT22;21110;48.036;15.780;2023-03-01T01:00:16;23.40;37.60
29243;DHT22;21110;48.036;15.780;2023-03-01T01:02:42;23.40;37.60
29243;DHT22;21110;48.036;15.780;2023-03-01T01:05:07;23.40;37.70
29243;DHT22;21110;48.036;15.780;2023-03-01T01:07:33;23.40;37.70
29243;DHT22;21110;48.036;15.780;2023-03-01T01:09:59;23.40;37.70
29243;DHT22;21110;48.036;15.780;2023-03-01T01:12:25;23.30;38.20
29243;DHT22;21110;48.036;15.780;2023-03-01T01:14:50;23.40;37.80
29243;DHT22;21110;48.036;15.780;2023-03-01T01:17:16;23.40;37.80
29243;DHT22;21110;48.036;15.780;2023-03-01T01:19:41;23.40;37.80
29243;DHT22;21110;48.036;15.780;2023-03-01T01:22:07;23.40;37.90
29243;DHT22;21110;48.036;15.780;2023-03-01T01:24:33;23.40;37.90
29243;DHT22;21110;48.036;15.780;2023-03-01T01:26:58;23.30;37.90
29243;DHT22;21110;48.036;15.780;2023-03-01T01:29:24;23.30;37.90
29243;DHT22;21110;48.036;15.780;2023-03-01T01:31:49;23.30;37.90
29243;DHT22;21110;48.036;15.780;2023-03-01T01:34:17;23.30;38.00
29243;DHT22;21110;48.036;15.780;2023-03-01T01:36:44;23.40;38.10
29243;DHT22;21110;48.036;15.780;2023-03-01T01:39:12;23.30;38.00
29243;DHT22;21110;48.036;15.780;2023-03-01T01:41:40;23.30;38.10
29243;DHT22;21110;48.036;15.780;2023-03-01T01:46:59;23.30;38.10
29243;DHT22;21110;48.036;15.780;2023-03-01T01:52:20;23.30;38.20
29243;DHT22;21110;48.036;15.780;2023-03-01T01:57:54;23.30;38.30
29243;DHT22;21110;48.036;15.780;2023-03-01T02:00:27;23.30;38.30
29243;DHT22;21110;48.036;15.780;2023-03-01T02:03:14;23.30;38.30
29243;DHT22;21110;48.036;15.780;2023-03-01T02:06:34;23.30;38.30
29243;DHT22;21110;48.036;15.780;2023-03-01T02:08:40;23.30;38.50
29243;DHT22;21110;48.036;15.780;2023-03-01T02:11:08;23.30;38.40
29243;DHT22;21110;48.036;15.780;2023-03-01T02:13:34;23.30;38.50
29243;DHT22;21110;48.036;15.780;2023-03-01T02:16:13;23.20;38.30
29243;DHT22;21110;48.036;15.780;2023-03-01T02:18:41;23.30;38.40
29243;DHT22;21110;48.036;15.780;2023-03-01T02:23:52;23.30;38.50
29243;DHT22;21110;48.036;15.780;2023-03-01T02:26:23;23.30;38.50
29243;DHT22;21110;48.036;15.780;2023-03-01T02:28:51;23.20;38.40
29243;DHT22;21110;48.036;15.780;2023-03-01T02:31:19;23.20;38.40
29243;DHT22;21110;48.036;15.780;2023-03-01T02:34:05;23.20;38.50
29243;DHT22;21110;48.036;15.780;2023-03-01T02:36:37;23.20;38.80
29243;DHT22;21110;48.036;15.780;2023-03-01T02:39:05;23.10;38.60
29243;DHT22;21110;48.036;15.780;2023-03-01T02:41:35;23.10;38.80
29243;DHT22;21110;48.036;15.780;2023-03-01T02:44:03;23.10;39.00
29243;DHT22;21110;48.036;15.780;2023-03-01T02:46:29;23.10;38.60
29243;DHT22;21110;48.036;15.780;2023-03-01T02:48:56;23.20;38.60
29243;DHT22;21110;48.036;15.780;2023-03-01T02:54:22;23.10;38.60
29243;DHT22;21110;48.036;15.780;2023-03-01T02:56:50;23.10;38.60
29243;DHT22;21110;48.036;15.780;2023-03-01T02:59:22;23.10;38.60
29243;DHT22;21110;48.036;15.780;2023-03-01T03:01:49;23.10;38.70
29243;DHT22;21110;48.036;15.780;2023-03-01T03:04:17;23.10;38.70
29243;DHT22;21110;48.036;15.780;2023-03-01T03:06:44;23.10;38.80
29243;DHT22;21110;48.036;15.780;2023-03-01T03:09:10;23.10;38.80
29243;DHT22;21110;48.036;15.780;2023-03-01T03:11:36;23.10;38.90
29243;DHT22;21110;48.036;15.780;2023-03-01T03:14:02;23.10;38.80
29243;DHT22;21110;48.036;15.780;2023-03-01T03:16:28;23.10;39.00
29243;DHT22;21110;48.036;15.780;2023-03-01T03:18:55;23.00;39.00
29243;DHT22;21110;48.036;15.780;2023-03-01T03:21:33;23.00;39.00
29243;DHT22;21110;48.036;15.780;2023-03-01T03:23:59;23.00;39.00
29243;DHT22;21110;48.036;15.780;2023-03-01T03:26:25;22.90;38.90
29243;DHT22;21110;48.036;15.780;2023-03-01T03:28:50;23.00;39.20
29243;DHT22;21110;48.036;15.780;2023-03-01T03:31:16;23.00;39.30
29243;DHT22;21110;48.036;15.780;2023-03-01T03:33:42;22.90;39.20
29243;DHT22;21110;48.036;15.780;2023-03-01T03:36:08;22.90;39.30
29243;DHT22;21110;48.036;15.780;2023-03-01T03:38:38;22.90;39.30
29243;DHT22;21110;48.036;15.780;2023-03-01T03:41:08;22.90;39.30
29243;DHT22;21110;48.036;15.780;2023-03-01T03:43:35;22.80;39.20
29243;DHT22;21110;48.036;15.780;2023-03-01T03:46:02;22.80;39.20
29243;DHT22;21110;48.036;15.780;2023-03-01T03:48:33;22.90;39.30
29243;DHT22;21110;48.036;15.780;2023-03-01T03:50:59;22.80;39.20
29243;DHT22;21110;48.036;15.780;2023-03-01T03:53:27;22.80;39.20
29243;DHT22;21110;48.036;15.780;2023-03-01T03:55:53;22.80;39.20
29243;DHT22;21110;48.036;15.780;2023-03-01T03:58:20;22.80;39.20
29243;DHT22;21110;48.036;15.780;2023-03-01T04:00:53;22.80;39.20
29243;DHT22;21110;48.036;15.780;2023-03-01T04:03:21;22.80;39.50
29243;DHT22;21110;48.036;15.780;2023-03-01T04:05:48;22.80;39.40
29243;DHT22;21110;48.036;15.780;2023-03-01T04:08:20;22.70;39.30
29243;DHT22;21110;48.036;15.780;2023-03-01T04:10:48;22.70;39.50
29243;DHT22;21110;48.036;15.780;2023-03-01T04:13:17;22.70;39.70
29243;DHT22;21110;48.036;15.780;2023-03-01T04:15:45;22.70;39.60
29243;DHT22;21110;48.036;15.780;2023-03-01T04:18:13;22.70;39.80
29243;DHT22;21110;48.036;15.780;2023-03-01T04:20:39;22.60;39.60
29243;DHT22;21110;48.036;15.780;2023-03-01T04:23:09;22.60;39.80
29243;DHT22;21110;48.036;15.780;2023-03-01T04:25:46;22.60;40.30
29243;DHT22;21110;48.036;15.780;2023-03-01T04:28:15;22.60;39.70
29243;DHT22;21110;48.036;15.780;2023-03-01T04:30:41;22.60;40.00
29243;DHT22;21110;48.036;15.780;2023-03-01T04:33:08;22.60;39.90
29243;DHT22;21110;48.036;15.780;2023-03-01T04:35:35;22.50;39.90
29243;DHT22;21110;48.036;15.780;2023-03-01T04:38:01;22.60;39.90
29243;DHT22;21110;48.036;15.780;2023-03-01T04:40:27;22.50;39.90
29243;DHT22;21110;48.036;15.780;2023-03-01T04:42:52;22.60;40.10
29243;DHT22;21110;48.036;15.780;2023-03-01T04:45:18;22.60;39.80
29243;DHT22;21110;48.036;15.780;2023-03-01T04:47:45;22.60;39.80
29243;DHT22;21110;48.036;15.780;2023-03-01T04:50:13;22.60;40.00
29243;DHT22;21110;48.036;15.780;2023-03-01T04:52:39;22.50;40.00
29243;DHT22;21110;48.036;15.780;2023-03-01T04:55:06;22.50;40.00
29243;DHT22;21110;48.036;15.780;2023-03-01T04:57:32;22.50;40.00
29243;DHT22;21110;48.036;15.780;2023-03-01T04:59:58;22.50;40.10
29243;DHT22;21110;48.036;15.780;2023-03-01T05:02:23;22.50;40.20
29243;DHT22;21110;48.036;15.780;2023-03-01T05:04:49;22.40;40.10
29243;DHT22;21110;48.036;15.780;2023-03-01T05:07:15;22.40;40.20
29243;DHT22;21110;48.036;15.780;2023-03-01T05:09:47;22.40;40.20
29243;DHT22;21110;48.036;15.780;2023-03-01T05:12:14;22.40;40.20
29243;DHT22;21110;48.036;15.780;2023-03-01T05:14:40;22.40;40.80
29243;DHT22;21110;48.036;15.780;2023-03-01T05:17:07;22.40;40.30
29243;DHT22;21110;48.036;15.780;2023-03-01T05:19:33;22.40;40.20
29243;DHT22;21110;48.036;15.780;2023-03-01T05:21:59;22.40;40.20
29243;DHT22;21110;48.036;15.780;2023-03-01T05:24:33;22.40;40.20
29243;DHT22;21110;48.036;15.780;2023-03-01T05:27:01;22.40;40.10
29243;DHT22;21110;48.036;15.780;2023-03-01T05:29:29;22.40;40.20
29243;DHT22;21110;48.036;15.780;2023-03-01T05:31:58;22.40;40.30
29243;DHT22;21110;48.036;15.780;2023-03-01T05:34:25;22.40;40.20
29243;DHT22;21110;48.036;15.780;2023-03-01T05:36:51;22.40;40.40
29243;DHT22;21110;48.036;15.780;2023-03-01T05:39:19;22.30;41.00
29243;DHT22;21110;48.036;15.780;2023-03-01T05:41:46;22.30;40.40
29243;DHT22;21110;48.036;15.780;2023-03-01T05:44:12;22.30;40.40
29243;DHT22;21110;48.036;15.780;2023-03-01T05:46:37;22.30;40.50
29243;DHT22;21110;48.036;15.780;2023-03-01T05:49:03;22.30;40.50
29243;DHT22;21110;48.036;15.780;2023-03-01T05:51:29;22.30;40.50
29243;DHT22;21110;48.036;15.780;2023-03-01T05:53:55;22.30;40.50
29243;DHT22;21110;48.036;15.780;2023-03-01T05:56:20;22.30;40.50
29243;DHT22;21110;48.036;15.780;2023-03-01T05:58:48;22.40;40.30
29243;DHT22;21110;48.036;15.780;2023-03-01T06:01:15;22.40;40.50
29243;DHT22;21110;48.036;15.780;2023-03-01T06:03:40;22.40;40.50
29243;DHT22;21110;48.036;15.780;2023-03-01T06:06:06;22.40;40.50
29243;DHT22;21110;48.036;15.780;2023-03-01T06:08:32;22.40;40.60
29243;DHT22;21110;48.036;15.780;2023-03-01T06:10:57;22.30;37.90
29243;DHT22;21110;48.036;15.780;2023-03-01T06:13:23;21.90;34.40
29243;DHT22;21110;48.036;15.780;2023-03-01T06:15:49;21.60;35.80
29243;DHT22;21110;48.036;15.780;2023-03-01T06:18:15;21.50;34.90
29243;DHT22;21110;48.036;15.780;2023-03-01T06:20:40;21.50;34.50
29243;DHT22;21110;48.036;15.780;2023-03-01T06:23:09;21.40;33.80
29243;DHT22;21110;48.036;15.780;2023-03-01T06:25:34;21.30;33.90
29243;DHT22;21110;48.036;15.780;2023-03-01T06:28:00;21.30;33.60
29243;DHT22;21110;48.036;15.780;2023-03-01T06:30:26;21.20;33.00
29243;DHT22;21110;48.036;15.780;2023-03-01T06:32:52;21.20;33.30
29243;DHT22;21110;48.036;15.780;2023-03-01T06:35:18;21.10;33.00
29243;DHT22;21110;48.036;15.780;2023-03-01T06:37:45;21.10;35.50
29243;DHT22;21110;48.036;15.780;2023-03-01T06:40:11;21.10;36.00
29243;DHT22;21110;48.036;15.780;2023-03-01T06:42:40;21.20;35.60
29243;DHT22;21110;48.036;15.780;2023-03-01T06:45:07;21.30;35.60
29243;DHT22;21110;48.036;15.780;2023-03-01T06:47:33;21.30;35.80
29243;DHT22;21110;48.036;15.780;2023-03-01T06:50:02;21.30;35.90
29243;DHT22;21110;48.036;15.780;2023-03-01T06:52:28;21.30;36.10
29243;DHT22;21110;48.036;15.780;2023-03-01T06:54:54;21.30;36.30
29243;DHT22;21110;48.036;15.780;2023-03-01T06:57:20;21.30;36.30
29243;DHT22;21110;48.036;15.780;2023-03-01T06:59:47;21.30;36.50
29243;DHT22;21110;48.036;15.780;2023-03-01T07:02:14;21.30;36.60
29243;DHT22;21110;48.036;15.780;2023-03-01T07:04:40;21.30;36.60
29243;DHT22;21110;48.036;15.780;2023-03-01T07:07:06;21.30;36.70
29243;DHT22;21110;48.036;15.780;2023-03-01T07:09:32;21.30;36.80
29243;DHT22;21110;48.036;15.780;2023-03-01T07:11:57;21.30;36.90
29243;DHT22;21110;48.036;15.780;2023-03-01T07:14:23;21.30;37.00
29243;DHT22;21110;48.036;15.780;2023-03-01T07:16:55;21.30;37.60
29243;DHT22;21110;48.036;15.780;2023-03-01T07:19:21;21.30;37.10
29243;DHT22;21110;48.036;15.780;2023-03-01T07:21:47;21.30;37.10
29243;DHT22;21110;48.036;15.780;2023-03-01T07:24:13;21.30;37.20
29243;DHT22;21110;48.036;15.780;2023-03-01T07:26:39;21.20;37.20
29243;DHT22;21110;48.036;15.780;2023-03-01T07:29:06;21.30;37.40
29243;DHT22;21110;48.036;15.780;2023-03-01T07:31:32;21.30;37.40
29243;DHT22;21110;48.036;15.780;2023-03-01T07:33:58;21.30;37.50
29243;DHT22;21110;48.036;15.780;2023-03-01T07:36:24;21.20;37.40
29243;DHT22;21110;48.036;15.780;2023-03-01T07:38:50;21.20;37.50
29243;DHT22;21110;48.036;15.780;2023-03-01T07:41:16;21.20;37.50
29243;DHT22;21110;48.036;15.780;2023-03-01T07:43:41;21.20;37.60
29243;DHT22;21110;48.036;15.780;2023-03-01T07:46:07;21.20;37.60
29243;DHT22;21110;48.036;15.780;2023-03-01T07:48:33;21.20;37.60
29243;DHT22;21110;48.036;15.780;2023-03-01T07:51:04;21.20;37.70
29243;DHT22;21110;48.036;15.780;2023-03-01T07:53:30;21.20;37.70
29243;DHT22;21110;48.036;15.780;2023-03-01T07:56:10;21.20;37.80
29243;DHT22;21110;48.036;15.780;2023-03-01T07:58:39;21.20;37.90
29243;DHT22;21110;48.036;15.780;2023-03-01T08:01:07;21.20;37.90
29243;DHT22;21110;48.036;15.780;2023-03-01T08:03:34;21.10;37.80
29243;DHT22;21110;48.036;15.780;2023-03-01T08:06:01;21.20;37.90
29243;DHT22;21110;48.036;15.780;2023-03-01T08:08:27;21.20;37.90
29243;DHT22;21110;48.036;15.780;2023-03-01T08:10:56;21.20;37.90
29243;DHT22;21110;48.036;15.780;2023-03-01T08:13:22;21.20;37.90
29243;DHT22;21110;48.036;15.780;2023-03-01T08:15:51;21.10;37.80
29243;DHT22;21110;48.036;15.780;2023-03-01T08:18:17;21.20;37.90
29243;DHT22;21110;48.036;15.780;2023-03-01T08:20:43;21.10;37.80
29243;DHT22;21110;48.036;15.780;2023-03-01T08:23:10;21.10;37.80
29243;DHT22;21110;48.036;15.780;2023-03-01T08:25:36;21.10;37.90
29243;DHT22;21110;48.036;15.780;2023-03-01T08:28:02;21.10;38.00
29243;DHT22;21110;48.036;15.780;2023-03-01T08:30:27;21.10;38.00
29243;DHT22;21110;48.036;15.780;2023-03-01T08:32:53;21.10;38.00
29243;DHT22;21110;48.036;15.780;2023-03-01T08:35:19;21.10;38.00
29243;DHT22;21110;48.036;15.780;2023-03-01T08:37:45;21.10;38.10
29243;DHT22;21110;48.036;15.780;2023-03-01T08:40:11;21.10;38.10
29243;DHT22;21110;48.036;15.780;2023-03-01T08:42:39;21.00;38.10
29243;DHT22;21110;48.036;15.780;2023-03-01T08:45:06;21.10;38.20
29243;DHT22;21110;48.036;15.780;2023-03-01T08:47:32;21.00;38.10
29243;DHT22;21110;48.036;15.780;2023-03-01T08:49:59;21.10;38.20
29243;DHT22;21110;48.036;15.780;2023-03-01T08:52:25;21.10;38.20
29243;DHT22;21110;48.036;15.780;2023-03-01T08:54:51;21.00;38.20
29243;DHT22;21110;48.036;15.780;2023-03-01T08:57:17;21.00;38.20
29243;DHT22;21110;48.036;15.780;2023-03-01T08:59:42;21.00;38.20
29243;DHT22;21110;48.036;15.780;2023-03-01T09:02:13;21.10;38.40
29243;DHT22;21110;48.036;15.780;2023-03-01T09:04:39;21.00;38.20
29243;DHT22;21110;48.036;15.780;2023-03-01T09:07:05;21.00;38.30
29243;DHT22;21110;48.036;15.780;2023-03-01T09:09:30;21.00;38.40
29243;DHT22;21110;48.036;15.780;2023-03-01T09:11:56;21.00;38.30
29243;DHT22;21110;48.036;15.780;2023-03-01T09:14:22;21.00;38.40
29243;DHT22;21110;48.036;15.780;2023-03-01T09:16:47;21.00;38.40
29243;DHT22;21110;48.036;15.780;2023-03-01T09:19:13;21.00;38.40
29243;DHT22;21110;48.036;15.780;2023-03-01T09:21:40;21.00;38.40
29243;DHT22;21110;48.036;15.780;2023-03-01T09:24:15;21.00;38.40
29243;DHT22;21110;48.036;15.780;2023-03-01T09:26:41;21.00;38.50
29243;DHT22;21110;48.036;15.780;2023-03-01T09:29:07;21.00;38.50
29243;DHT22;21110;48.036;15.780;2023-03-01T09:31:34;20.90;38.40
29243;DHT22;21110;48.036;15.780;2023-03-01T09:34:00;20.90;38.50
29243;DHT22;21110;48.036;15.780;2023-03-01T09:36:26;20.90;38.50
29243;DHT22;21110;48.036;15.780;2023-03-01T09:38:51;20.90;38.50
29243;DHT22;21110;48.036;15.780;2023-03-01T09:46:52;20.90;38.50
29243;DHT22;21110;48.036;15.780;2023-03-01T09:49:21;20.90;38.60
29243;DHT22;21110;48.036;15.780;2023-03-01T09:51:58;20.90;38.60
29243;DHT22;21110;48.036;15.780;2023-03-01T09:54:24;20.90;38.70
29243;DHT22;21110;48.036;15.780;2023-03-01T10:00:00;20.90;38.70
29243;DHT22;21110;48.036;15.780;2023-03-01T10:08:34;20.80;38.70
29243;DHT22;21110;48.036;15.780;2023-03-01T10:11:02;20.80;38.70
29243;DHT22;21110;48.036;15.780;2023-03-01T10:13:50;20.90;38.80
29243;DHT22;21110;48.036;15.780;2023-03-01T10:16:27;20.80;38.70
29243;DHT22;21110;48.036;15.780;2023-03-01T10:18:59;20.90;38.80
29243;DHT22;21110;48.036;15.780;2023-03-01T10:21:26;20.80;38.80
29243;DHT22;21110;48.036;15.780;2023-03-01T10:23:53;20.80;38.80
29243;DHT22;21110;48.036;15.780;2023-03-01T10:29:10;20.80;38.80
29243;DHT22;21110;48.036;15.780;2023-03-01T10:31:48;20.80;38.80
29243;DHT22;21110;48.036;15.780;2023-03-01T10:36:43;20.80;38.90
29243;DHT22;21110;48.036;15.780;2023-03-01T10:39:21;20.80;38.90
29243;DHT22;21110;48.036;15.780;2023-03-01T10:42:05;20.80;38.90
29243;DHT22;21110;48.036;15.780;2023-03-01T10:44:45;20.70;38.80
29243;DHT22;21110;48.036;15.780;2023-03-01T10:49:39;20.70;38.90
29243;DHT22;21110;48.036;15.780;2023-03-01T10:52:22;20.70;38.90
29243;DHT22;21110;48.036;15.780;2023-03-01T10:54:54;20.80;39.00
29243;DHT22;21110;48.036;15.780;2023-03-01T10:57:34;20.70;38.90
29243;DHT22;21110;48.036;15.780;2023-03-01T11:00:20;20.70;38.90
29243;DHT22;21110;48.036;15.780;2023-03-01T11:03:10;20.70;39.00
29243;DHT22;21110;48.036;15.780;2023-03-01T11:05:33;20.70;39.00
29243;DHT22;21110;48.036;15.780;2023-03-01T11:08:01;20.70;39.00
29243;DHT22;21110;48.036;15.780;2023-03-01T11:10:36;20.70;39.10
29243;DHT22;21110;48.036;15.780;2023-03-01T11:13:14;20.70;39.10
29243;DHT22;21110;48.036;15.780;2023-03-01T11:15:40;20.70;39.10
29243;DHT22;21110;48.036;15.780;2023-03-01T11:18:22;20.60;39.00
29243;DHT22;21110;48.036;15.780;2023-03-01T11:20:48;20.70;39.10
29243;DHT22;21110;48.036;15.780;2023-03-01T11:23:15;20.70;39.10
29243;DHT22;21110;48.036;15.780;2023-03-01T11:25:45;20.60;39.00
29243;DHT22;21110;48.036;15.780;2023-03-01T11:28:16;20.60;39.00
29243;DHT22;21110;48.036;15.780;2023-03-01T11:31:08;20.60;39.00
29243;DHT22;21110;48.036;15.780;2023-03-01T11:33:48;20.60;39.10
29243;DHT22;21110;48.036;15.780;2023-03-01T11:39:50;20.60;39.20
29243;DHT22;21110;48.036;15.780;2023-03-01T11:44:54;20.60;39.10
29243;DHT22;21110;48.036;15.780;2023-03-01T12:07:00;20.50;39.20
29243;DHT22;21110;48.036;15.780;2023-03-01T12:10:03;20.50;39.20
29243;DHT22;21110;48.036;15.780;2023-03-01T12:12:36;20.50;39.30
29243;DHT22;21110;48.036;15.780;2023-03-01T12:32:31;20.50;39.40
29243;DHT22;21110;48.036;15.780;2023-03-01T12:46:39;20.50;39.40
29243;DHT22;21110;48.036;15.780;2023-03-01T12:52:35;20.40;39.40
29243;DHT22;21110;48.036;15.780;2023-03-01T12:54:41;20.40;39.40
29243;DHT22;21110;48.036;15.780;2023-03-01T12:57:33;20.40;39.40
29243;DHT22;21110;48.036;15.780;2023-03-01T13:03:28;20.40;39.50
29243;DHT22;21110;48.036;15.780;2023-03-01T13:08:33;20.40;39.40
29243;DHT22;21110;48.036;15.780;2023-03-01T13:11:03;20.40;39.40
29243;DHT22;21110;48.036;15.780;2023-03-01T13:13:30;20.40;39.40
29243;DHT22;21110;48.036;15.780;2023-03-01T13:15:56;20.40;39.50
29243;DHT22;21110;48.036;15.780;2023-03-01T13:20:53;20.30;39.40
29243;DHT22;21110;48.036;15.780;2023-03-01T13:31:04;20.40;39.50
29243;DHT22;21110;48.036;15.780;2023-03-01T13:35:57;20.30;39.50
29243;DHT22;21110;48.036;15.780;2023-03-01T13:38:46;20.30;39.50
29243;DHT22;21110;48.036;15.780;2023-03-01T13:41:17;20.30;39.50
29243;DHT22;21110;48.036;15.780;2023-03-01T13:46:46;20.30;39.50
29243;DHT22;21110;48.036;15.780;2023-03-01T13:49:21;20.30;39.60
29243;DHT22;21110;48.036;15.780;2023-03-01T13:51:50;20.30;39.60
29243;DHT22;21110;48.036;15.780;2023-03-01T13:54:29;20.30;39.60
29243;DHT22;21110;48.036;15.780;2023-03-01T13:56:57;20.30;39.60
29243;DHT22;21110;48.036;15.780;2023-03-01T13:59:23;20.20;39.60
29243;DHT22;21110;48.036;15.780;2023-03-01T14:01:56;20.30;39.70
29243;DHT22;21110;48.036;15.780;2023-03-01T14:04:25;20.30;39.70
29243;DHT22;21110;48.036;15.780;2023-03-01T14:06:51;20.30;39.70
29243;DHT22;21110;48.036;15.780;2023-03-01T14:09:23;20.20;39.60
29243;DHT22;21110;48.036;15.780;2023-03-01T14:20:27;20.20;39.60
29243;DHT22;21110;48.036;15.780;2023-03-01T14:22:56;20.20;39.70
29243;DHT22;21110;48.036;15.780;2023-03-01T14:25:27;20.20;39.70
29243;DHT22;21110;48.036;15.780;2023-03-01T14:27:59;20.20;39.70
29243;DHT22;21110;48.036;15.780;2023-03-01T14:30:42;20.20;39.80
29243;DHT22;21110;48.036;15.780;2023-03-01T14:33:25;20.20;39.80
29243;DHT22;21110;48.036;15.780;2023-03-01T14:36:00;20.20;39.80
29243;DHT22;21110;48.036;15.780;2023-03-01T14:38:45;20.20;39.80
29243;DHT22;21110;48.036;15.780;2023-03-01T14:41:17;20.20;39.80
29243;DHT22;21110;48.036;15.780;2023-03-01T14:43:56;20.20;39.80
29243;DHT22;21110;48.036;15.780;2023-03-01T14:46:30;20.10;39.70
29243;DHT22;21110;48.036;15.780;2023-03-01T14:49:17;20.20;39.80
29243;DHT22;21110;48.036;15.780;2023-03-01T14:51:54;20.10;39.70
29243;DHT22;21110;48.036;15.780;2023-03-01T14:54:46;20.20;39.80
29243;DHT22;21110;48.036;15.780;2023-03-01T14:57:18;20.20;39.80
29243;DHT22;21110;48.036;15.780;2023-03-01T14:59:44;20.10;39.80
29243;DHT22;21110;48.036;15.780;2023-03-01T15:02:17;20.20;39.80
29243;DHT22;21110;48.036;15.780;2023-03-01T15:04:47;20.10;39.80
29243;DHT22;21110;48.036;15.780;2023-03-01T15:07:14;20.10;39.80
29243;DHT22;21110;48.036;15.780;2023-03-01T15:09:40;20.10;39.90
29243;DHT22;21110;48.036;15.780;2023-03-01T15:12:34;20.10;39.90
29243;DHT22;21110;48.036;15.780;2023-03-01T15:15:00;20.10;39.90
29243;DHT22;21110;48.036;15.780;2023-03-01T15:17:35;20.10;39.90
29243;DHT22;21110;48.036;15.780;2023-03-01T15:20:13;20.10;39.90
29243;DHT22;21110;48.036;15.780;2023-03-01T15:22:43;20.10;39.90
29243;DHT22;21110;48.036;15.780;2023-03-01T15:25:22;20.10;39.90
29243;DHT22;21110;48.036;15.780;2023-03-01T15:27:50;20.10;39.90
29243;DHT22;21110;48.036;15.780;2023-03-01T15:30:42;20.10;39.90
29243;DHT22;21110;48.036;15.780;2023-03-01T15:35:50;20.10;40.00
29243;DHT22;21110;48.036;15.780;2023-03-01T15:41:29;20.10;40.00
29243;DHT22;21110;48.036;15.780;2023-03-01T15:44:16;20.10;40.00
29243;DHT22;21110;48.036;15.780;2023-03-01T15:46:46;20.10;40.00
29243;DHT22;21110;48.036;15.780;2023-03-01T15:49:40;20.10;40.10
29243;DHT22;21110;48.036;15.780;2023-03-01T15:52:19;20.10;40.00
29243;DHT22;21110;48.036;15.780;2023-03-01T15:54:46;20.00;40.00
29243;DHT22;21110;48.036;15.780;2023-03-01T15:57:15;20.00;40.00
29243;DHT22;21110;48.036;15.780;2023-03-01T15:59:41;20.00;40.00
29243;DHT22;21110;48.036;15.780;2023-03-01T16:02:12;20.00;40.00
29243;DHT22;21110;48.036;15.780;2023-03-01T16:04:39;20.00;40.00
29243;DHT22;21110;48.036;15.780;2023-03-01T16:07:05;20.00;40.10
29243;DHT22;21110;48.036;15.780;2023-03-01T16:09:31;20.00;40.10
29243;DHT22;21110;48.036;15.780;2023-03-01T16:11:57;20.00;40.10
29243;DHT22;21110;48.036;15.780;2023-03-01T16:14:23;20.00;40.10
29243;DHT22;21110;48.036;15.780;2023-03-01T16:16:49;20.00;40.10
29243;DHT22;21110;48.036;15.780;2023-03-01T16:19:15;20.00;40.10
29243;DHT22;21110;48.036;15.780;2023-03-01T16:21:42;20.00;40.10
29243;DHT22;21110;48.036;15.780;2023-03-01T16:24:09;20.00;40.10
29243;DHT22;21110;48.036;15.780;2023-03-01T16:26:36;19.90;40.00
29243;DHT22;21110;48.036;15.780;2023-03-01T16:29:03;19.90;40.10
29243;DHT22;21110;48.036;15.780;2023-03-01T16:31:28;19.90;40.10
29243;DHT22;21110;48.036;15.780;2023-03-01T16:33:55;19.90;40.10
29243;DHT22;21110;48.036;15.780;2023-03-01T16:36:22;19.90;40.10
29243;DHT22;21110;48.036;15.780;2023-03-01T16:38:53;19.90;40.20
29243;DHT22;21110;48.036;15.780;2023-03-01T16:41:22;19.90;40.20
29243;DHT22;21110;48.036;15.780;2023-03-01T16:43:48;19.90;40.20
29243;DHT22;21110;48.036;15.780;2023-03-01T16:46:17;19.90;40.20
29243;DHT22;21110;48.036;15.780;2023-03-01T16:48:43;19.90;40.20
29243;DHT22;21110;48.036;15.780;2023-03-01T16:51:10;19.90;40.20
29243;DHT22;21110;48.036;15.780;2023-03-01T16:53:36;19.90;40.20
29243;DHT22;21110;48.036;15.780;2023-03-01T16:56:04;19.80;40.20
29243;DHT22;21110;48.036;15.780;2023-03-01T16:58:30;19.90;40.20
29243;DHT22;21110;48.036;15.780;2023-03-01T17:00:56;19.80;40.20
29243;DHT22;21110;48.036;15.780;2023-03-01T17:03:23;19.80;40.20
29243;DHT22;21110;48.036;15.780;2023-03-01T17:05:49;19.80;40.10
29243;DHT22;21110;48.036;15.780;2023-03-01T17:08:15;19.80;40.00
29243;DHT22;21110;48.036;15.780;2023-03-01T17:10:41;19.90;40.10
29243;DHT22;21110;48.036;15.780;2023-03-01T17:13:08;19.90;40.10
29243;DHT22;21110;48.036;15.780;2023-03-01T17:15:35;19.80;40.10
29243;DHT22;21110;48.036;15.780;2023-03-01T17:18:02;19.90;40.20
29243;DHT22;21110;48.036;15.780;2023-03-01T17:20:32;19.80;40.20
29243;DHT22;21110;48.036;15.780;2023-03-01T17:22:57;19.90;40.20
29243;DHT22;21110;48.036;15.780;2023-03-01T17:25:23;19.90;40.20
29243;DHT22;21110;48.036;15.780;2023-03-01T17:27:48;19.80;40.20
29243;DHT22;21110;48.036;15.780;2023-03-01T17:30:15;19.80;40.20
29243;DHT22;21110;48.036;15.780;2023-03-01T17:32:41;19.80;40.20
29243;DHT22;21110;48.036;15.780;2023-03-01T17:35:07;19.80;40.20
29243;DHT22;21110;48.036;15.780;2023-03-01T17:37:35;19.80;40.30